KCRW/CRW METAR and TAF weather

Enter ICAO airport designator
Station Type Date Time Source
KCRW METAR 2018/10/22 15:54 UTC NOAA

KCRW 221554Z VRB04KT 10SM FEW300 12/03 A3025 RMK AO2 SLP248 T01170033 $


Station Type Date Time Source
KCRW Decoded METAR 2018/10/22 15:54 UTC NOAA

YEAGER AIRPORT, WV, United States (KCRW) 38-22N 081-36W 309M
Oct 22, 2018 - 11:54 AM EDT / 2018.10.22 1554 UTC
Wind: Variable at 5 MPH (4 KT):0
Visibility: 10 mile(s):0
Sky conditions: mostly clear
Temperature: 53.1 F (11.7 C)
Dew Point: 37.9 F (3.3 C)
Relative Humidity: 56%
Pressure (altimeter): 30.25 in. Hg (1024 hPa)
ob: KCRW 221554Z VRB04KT 10SM FEW300 12/03 A3025 RMK AO2 SLP248 T01170033
cycle: 16

Station Type Date Time Source
KCRW TAF 2018/10/22 15:21 UTC NOAA

TAF
AMD KCRW 221519Z 2215/2312 00000KT P6SM FEW300


Example: see airport list